createdAt,value
2023-10-22T00:01:00.113Z,26.80
2023-10-22T00:03:27.242Z,28.50
2023-10-22T00:05:54.287Z,27.05
2023-10-22T00:08:21.226Z,28.08
2023-10-22T00:10:48.191Z,26.83
2023-10-22T00:13:15.094Z,25.33
2023-10-22T00:15:42.114Z,26.75
2023-10-22T00:18:09.202Z,25.98
2023-10-22T00:20:38.698Z,26.75
2023-10-22T00:23:05.632Z,27.42
2023-10-22T00:25:36.045Z,25.83
2023-10-22T00:28:03.434Z,28.92
2023-10-22T00:30:30.798Z,28.65
2023-10-22T00:32:58.273Z,28.00
2023-10-22T00:35:27.548Z,29.35
2023-10-22T00:37:54.680Z,28.90
2023-10-22T00:40:21.620Z,28.42
2023-10-22T00:42:48.519Z,29.92
2023-10-22T00:45:15.549Z,29.70
2023-10-22T00:47:43.011Z,32.08
2023-10-22T00:50:10.711Z,29.65
2023-10-22T00:52:37.693Z,31.08
2023-10-22T00:55:05.072Z,30.80
2023-10-22T00:57:32.090Z,29.65
2023-10-22T00:59:59.123Z,29.17
2023-10-22T01:02:26.121Z,30.35
2023-10-22T01:04:53.083Z,28.83
2023-10-22T01:07:20.620Z,28.15
2023-10-22T01:09:47.586Z,27.65
2023-10-22T01:12:14.611Z,28.17
2023-10-22T01:14:41.656Z,29.27
2023-10-22T01:17:08.577Z,29.08
2023-10-22T01:19:35.499Z,26.50
2023-10-22T01:22:02.444Z,28.27
2023-10-22T01:24:33.633Z,28.60
2023-10-22T01:27:00.724Z,27.73
2023-10-22T01:29:27.746Z,29.77
2023-10-22T01:31:54.697Z,28.70
2023-10-22T01:34:21.671Z,28.10
2023-10-22T01:36:48.591Z,28.25
2023-10-22T01:39:15.584Z,28.10
2023-10-22T01:41:42.889Z,29.67
2023-10-22T01:44:09.894Z,27.73
2023-10-22T01:46:37.058Z,28.90
2023-10-22T01:49:04.115Z,30.70
2023-10-22T01:51:31.044Z,29.98
2023-10-22T01:53:58.100Z,29.65
2023-10-22T01:56:25.099Z,29.40
2023-10-22T01:58:52.018Z,30.98
2023-10-22T02:01:19.029Z,31.85
2023-10-22T02:03:46.285Z,29.25
2023-10-22T02:06:14.591Z,27.60
2023-10-22T02:08:42.696Z,26.98
2023-10-22T02:11:09.660Z,27.38
2023-10-22T02:13:36.573Z,27.17
2023-10-22T02:16:03.656Z,26.83
2023-10-22T02:18:31.494Z,25.40
2023-10-22T02:21:00.993Z,26.58
2023-10-22T02:23:29.093Z,25.75
2023-10-22T02:25:56.283Z,26.85
2023-10-22T02:28:23.219Z,27.63
2023-10-22T02:30:50.249Z,26.08
2023-10-22T02:33:17.449Z,26.77
2023-10-22T02:35:45.674Z,25.90
2023-10-22T02:38:15.374Z,25.15
2023-10-22T02:40:42.905Z,26.33
2023-10-22T02:43:10.363Z,27.65
2023-10-22T02:45:37.285Z,27.67
2023-10-22T02:48:04.573Z,25.77
2023-10-22T02:50:31.605Z,25.33
2023-10-22T02:52:58.553Z,24.77
2023-10-22T02:55:25.510Z,25.30
2023-10-22T02:57:52.487Z,24.45
2023-10-22T03:00:33.292Z,25.90
2023-10-22T03:03:06.542Z,24.48
2023-10-22T03:05:36.832Z,25.25
2023-10-22T03:08:03.880Z,25.17
2023-10-22T03:10:30.792Z,25.25
2023-10-22T03:12:57.740Z,27.38
2023-10-22T03:15:24.986Z,28.50
2023-10-22T03:17:54.471Z,25.45
2023-10-22T03:20:21.539Z,25.20
2023-10-22T03:22:48.483Z,24.27
2023-10-22T03:25:15.510Z,21.80
2023-10-22T03:27:42.437Z,22.00
2023-10-22T03:30:09.960Z,24.23
2023-10-22T03:32:37.342Z,22.90
2023-10-22T03:35:04.449Z,22.63
2023-10-22T03:37:31.396Z,23.00
2023-10-22T03:39:58.333Z,23.20
2023-10-22T03:42:25.399Z,21.95
2023-10-22T03:44:52.297Z,22.13
2023-10-22T03:47:19.236Z,21.40
2023-10-22T03:49:46.174Z,20.52
2023-10-22T03:52:13.155Z,22.95
2023-10-22T03:54:40.407Z,22.35
2023-10-22T03:57:07.381Z,21.75
2023-10-22T03:59:34.342Z,21.25
2023-10-22T04:02:01.235Z,20.95
2023-10-22T04:04:28.277Z,20.65
2023-10-22T04:06:55.301Z,20.95
2023-10-22T04:09:22.269Z,20.02
2023-10-22T04:11:49.165Z,21.98
2023-10-22T04:14:16.044Z,21.67
2023-10-22T04:16:43.143Z,21.52
2023-10-22T04:19:10.112Z,19.83
2023-10-22T04:21:37.063Z,19.75
2023-10-22T04:24:04.329Z,79.03
2023-10-22T04:26:31.340Z,33.65
2023-10-22T04:28:58.310Z,228.00
2023-10-22T04:31:25.242Z,205.15
2023-10-22T04:33:52.138Z,267.15
2023-10-22T04:36:19.562Z,184.90
2023-10-22T04:38:46.587Z,157.43
2023-10-22T04:41:14.005Z,336.52
2023-10-22T04:43:41.026Z,446.40
2023-10-22T04:46:07.965Z,134.27
2023-10-22T04:48:34.964Z,54.03
2023-10-22T04:51:06.441Z,21.25
2023-10-22T04:53:34.831Z,104.73
2023-10-22T04:56:02.284Z,156.48
2023-10-22T04:58:29.548Z,108.65
2023-10-22T05:00:56.868Z,53.03
2023-10-22T05:03:24.248Z,34.75
2023-10-22T05:05:51.667Z,36.25
2023-10-22T05:08:18.632Z,33.03
2023-10-22T05:10:45.568Z,28.08
2023-10-22T05:13:12.496Z,28.13
2023-10-22T05:15:39.435Z,25.17
2023-10-22T05:18:07.635Z,31.67
2023-10-22T05:20:35.463Z,22.25
2023-10-22T05:23:03.888Z,20.83
2023-10-22T05:25:30.921Z,23.67
2023-10-22T05:27:57.881Z,23.05
2023-10-22T05:30:24.798Z,20.85
2023-10-22T05:32:52.966Z,20.50
2023-10-22T05:35:19.992Z,20.15
2023-10-22T05:37:46.927Z,19.63
2023-10-22T05:40:14.143Z,20.98
2023-10-22T05:42:41.064Z,20.48
2023-10-22T05:45:08.104Z,22.58
2023-10-22T05:47:35.075Z,24.00
2023-10-22T05:50:02.264Z,18.75
2023-10-22T05:52:29.534Z,18.77
2023-10-22T05:54:56.574Z,17.95
2023-10-22T05:57:23.661Z,25.20
2023-10-22T05:59:51.108Z,19.88
2023-10-22T06:02:18.099Z,18.08
2023-10-22T06:04:45.080Z,17.23
2023-10-22T06:07:11.997Z,16.27
2023-10-22T06:09:38.917Z,29.55
2023-10-22T06:12:06.079Z,31.10
2023-10-22T06:14:33.673Z,77.68
2023-10-22T06:17:00.621Z,146.05
2023-10-22T06:19:27.568Z,73.15
2023-10-22T06:21:54.540Z,35.13
2023-10-22T06:24:21.548Z,101.45
2023-10-22T06:26:48.601Z,46.15
2023-10-22T06:29:15.541Z,25.23
2023-10-22T06:31:42.513Z,40.47
2023-10-22T06:34:09.520Z,25.70
2023-10-22T06:36:36.518Z,30.25
2023-10-22T06:39:03.492Z,31.73
2023-10-22T06:41:30.454Z,36.58
2023-10-22T06:43:57.365Z,29.55
2023-10-22T06:46:24.312Z,69.22
2023-10-22T06:48:51.375Z,40.65
2023-10-22T06:51:19.034Z,29.90
2023-10-22T06:53:48.037Z,25.50
2023-10-22T06:56:15.732Z,22.13
2023-10-22T06:58:42.794Z,19.40
2023-10-22T07:01:12.661Z,16.83
2023-10-22T07:03:43.089Z,17.42
2023-10-22T07:06:10.353Z,18.33
2023-10-22T07:08:37.689Z,24.67
2023-10-22T07:11:04.840Z,23.13
2023-10-22T07:13:31.929Z,19.00
2023-10-22T07:15:58.978Z,19.88
2023-10-22T07:18:26.124Z,29.42
2023-10-22T07:20:53.315Z,19.52
2023-10-22T07:23:20.313Z,20.33
2023-10-22T07:25:47.694Z,48.95
2023-10-22T07:28:14.771Z,56.05
2023-10-22T07:30:48.010Z,71.60
2023-10-22T07:33:15.115Z,35.95
2023-10-22T07:35:52.262Z,31.33
2023-10-22T07:38:19.180Z,26.80
2023-10-22T07:40:46.121Z,47.70
2023-10-22T07:43:13.022Z,38.80
2023-10-22T07:45:39.958Z,38.90
2023-10-22T07:48:07.057Z,45.55
2023-10-22T07:50:34.073Z,37.00
2023-10-22T07:53:00.990Z,26.40
2023-10-22T07:55:27.913Z,28.45
2023-10-22T07:57:54.863Z,27.58
2023-10-22T08:00:21.913Z,32.08
2023-10-22T08:02:48.935Z,53.10
2023-10-22T08:05:17.155Z,33.97
2023-10-22T08:07:44.356Z,34.95
2023-10-22T08:10:11.394Z,53.10
2023-10-22T08:12:38.388Z,43.33
2023-10-22T08:15:05.858Z,49.53
2023-10-22T08:17:32.835Z,60.25
2023-10-22T08:19:59.852Z,77.90
2023-10-22T08:22:26.791Z,67.47
2023-10-22T08:24:53.747Z,52.72
2023-10-22T08:27:20.690Z,53.80
2023-10-22T08:29:47.664Z,38.80
2023-10-22T08:32:14.644Z,49.40
2023-10-22T08:34:41.612Z,46.00
2023-10-22T08:37:08.565Z,42.78
2023-10-22T08:39:35.511Z,47.45
2023-10-22T08:42:09.798Z,35.53
2023-10-22T08:44:46.277Z,30.75
2023-10-22T08:47:13.607Z,23.80
2023-10-22T08:49:40.834Z,26.33
2023-10-22T08:52:08.425Z,26.52
2023-10-22T08:54:36.725Z,28.27
2023-10-22T08:57:04.285Z,31.30
2023-10-22T08:59:31.318Z,30.60
2023-10-22T09:01:58.578Z,75.60
2023-10-22T09:04:25.649Z,42.15
2023-10-22T09:06:55.462Z,44.38
2023-10-22T09:09:29.286Z,33.40
2023-10-22T09:11:57.445Z,29.08
2023-10-22T09:14:24.922Z,33.22
2023-10-22T09:16:51.991Z,36.22
2023-10-22T09:19:38.401Z,30.48
2023-10-22T09:22:05.702Z,27.85
2023-10-22T09:24:48.324Z,93.55
2023-10-22T09:27:24.619Z,49.08
2023-10-22T09:29:51.565Z,43.08
2023-10-22T09:32:18.666Z,37.22
2023-10-22T09:34:45.641Z,27.60
2023-10-22T09:37:12.561Z,21.73
2023-10-22T09:39:44.366Z,25.58
2023-10-22T09:42:17.257Z,59.35
2023-10-22T09:44:45.585Z,97.97
2023-10-22T09:47:20.869Z,98.22
2023-10-22T09:49:52.818Z,79.68
2023-10-22T09:52:23.784Z,47.72
2023-10-22T09:54:55.003Z,66.25
2023-10-22T09:57:29.724Z,137.45
2023-10-22T09:59:57.035Z,92.18
2023-10-22T10:02:24.658Z,82.47
2023-10-22T10:04:52.366Z,67.32
2023-10-22T10:07:19.358Z,40.17
2023-10-22T10:09:47.102Z,26.05
2023-10-22T10:12:15.629Z,23.02
2023-10-22T10:14:47.159Z,27.70
2023-10-22T10:17:16.327Z,24.05
2023-10-22T10:19:43.413Z,27.75
2023-10-22T10:22:10.644Z,22.35
2023-10-22T10:24:37.808Z,17.00
2023-10-22T10:27:07.778Z,12.52
2023-10-22T10:29:34.737Z,14.85
2023-10-22T10:32:16.903Z,15.93
2023-10-22T10:34:46.723Z,14.80
2023-10-22T10:37:21.146Z,17.17
2023-10-22T10:39:54.298Z,18.92
2023-10-22T10:42:30.320Z,16.48
2023-10-22T10:44:57.285Z,14.88
2023-10-22T10:47:24.279Z,15.85
2023-10-22T10:50:06.449Z,15.45
2023-10-22T10:52:36.417Z,13.48
2023-10-22T10:55:23.574Z,14.32
2023-10-22T10:57:52.937Z,16.02
2023-10-22T11:00:21.447Z,14.57
2023-10-22T11:02:50.934Z,13.40
2023-10-22T11:05:30.406Z,14.25
2023-10-22T11:07:57.877Z,14.63
2023-10-22T11:10:24.800Z,14.02
2023-10-22T11:12:51.779Z,18.63
2023-10-22T11:15:18.827Z,23.77
2023-10-22T11:17:45.940Z,19.30
2023-10-22T11:20:13.113Z,12.25
2023-10-22T11:22:40.312Z,15.20
2023-10-22T11:25:11.694Z,19.88
2023-10-22T11:27:39.896Z,19.25
2023-10-22T11:30:08.164Z,18.52
2023-10-22T11:32:35.222Z,22.90
2023-10-22T11:35:06.430Z,16.67
2023-10-22T11:37:35.595Z,17.00
2023-10-22T11:40:02.645Z,47.90
2023-10-22T11:42:33.621Z,21.30
2023-10-22T11:45:00.700Z,21.95
2023-10-22T11:47:31.421Z,20.98
2023-10-22T11:49:58.605Z,20.27
2023-10-22T11:52:37.508Z,20.20
2023-10-22T11:55:05.776Z,21.88
2023-10-22T11:57:32.795Z,24.70
2023-10-22T11:59:59.843Z,23.33
2023-10-22T12:02:26.873Z,29.15
2023-10-22T12:04:53.848Z,24.67
2023-10-22T12:07:20.793Z,18.83
2023-10-22T12:09:47.701Z,28.08
2023-10-22T12:12:14.737Z,25.05
2023-10-22T12:14:41.707Z,26.77
2023-10-22T12:17:08.808Z,29.17
2023-10-22T12:19:36.123Z,22.30
2023-10-22T12:22:03.046Z,22.13
2023-10-22T12:24:29.995Z,25.13
2023-10-22T12:26:57.044Z,25.08
2023-10-22T12:29:24.131Z,18.50
2023-10-22T12:31:51.306Z,21.20
2023-10-22T12:34:21.481Z,21.40
2023-10-22T12:36:48.415Z,19.73
2023-10-22T12:39:15.350Z,14.25
2023-10-22T12:41:42.347Z,14.38
2023-10-22T12:44:09.286Z,14.50
2023-10-22T12:46:36.291Z,14.20
2023-10-22T12:49:03.983Z,14.68
2023-10-22T12:51:31.081Z,14.85
2023-10-22T12:53:58.059Z,15.20
2023-10-22T12:56:25.089Z,13.68
2023-10-22T12:58:52.032Z,13.13
2023-10-22T13:01:18.962Z,12.48
2023-10-22T13:03:45.969Z,13.45
2023-10-22T13:06:14.074Z,10.90
2023-10-22T13:08:41.030Z,11.57
2023-10-22T13:11:08.050Z,11.80
2023-10-22T13:13:34.974Z,8.70
2023-10-22T13:16:01.931Z,9.20
2023-10-22T13:18:29.122Z,8.45
2023-10-22T13:20:56.574Z,7.35
2023-10-22T13:23:23.540Z,6.70
2023-10-22T13:25:50.535Z,16.02
2023-10-22T13:28:17.500Z,7.05
2023-10-22T13:30:44.406Z,6.90
2023-10-22T13:33:11.804Z,11.70
2023-10-22T13:35:38.746Z,6.22
2023-10-22T13:38:05.667Z,7.45
2023-10-22T13:40:32.614Z,7.72
2023-10-22T13:42:59.547Z,6.20
2023-10-22T13:45:26.572Z,7.13
2023-10-22T13:47:53.559Z,10.77
2023-10-22T13:50:20.568Z,18.30
2023-10-22T13:52:47.621Z,7.72
2023-10-22T13:55:15.188Z,27.50
2023-10-22T13:57:42.472Z,6.22
2023-10-22T14:00:10.132Z,6.68
2023-10-22T14:02:38.838Z,7.18
2023-10-22T14:05:10.018Z,7.05
2023-10-22T14:07:38.335Z,13.75
2023-10-22T14:10:06.157Z,6.80
2023-10-22T14:12:33.129Z,11.60
2023-10-22T14:15:00.271Z,5.10
2023-10-22T14:17:27.263Z,4.80
2023-10-22T14:19:55.165Z,5.72
2023-10-22T14:22:22.406Z,55.58
2023-10-22T14:24:53.618Z,3.83
2023-10-22T14:27:21.441Z,17.75
2023-10-22T14:29:48.458Z,3.60
2023-10-22T14:32:15.477Z,5.82
2023-10-22T14:34:42.470Z,4.07
2023-10-22T14:37:10.843Z,5.15
2023-10-22T14:39:38.545Z,6.57
2023-10-22T14:42:05.736Z,3.25
2023-10-22T14:44:32.726Z,3.20
2023-10-22T14:46:59.733Z,2.92
2023-10-22T14:49:26.659Z,4.28
2023-10-22T14:51:53.653Z,3.47
2023-10-22T14:54:20.675Z,3.50
2023-10-22T14:56:47.594Z,15.20
2023-10-22T14:59:14.797Z,6.97
2023-10-22T15:01:41.796Z,4.72
2023-10-22T15:04:08.957Z,6.47
2023-10-22T15:06:36.081Z,15.50
2023-10-22T15:09:03.159Z,11.50
2023-10-22T15:11:30.110Z,8.10
2023-10-22T15:13:56.975Z,6.18
2023-10-22T15:16:24.144Z,5.00
2023-10-22T15:18:51.164Z,5.43
2023-10-22T15:21:18.129Z,5.57
2023-10-22T15:23:45.116Z,5.60
2023-10-22T15:26:12.470Z,4.95
2023-10-22T15:28:39.414Z,5.00
2023-10-22T15:31:06.359Z,4.80
2023-10-22T15:33:33.301Z,4.57
2023-10-22T15:36:00.830Z,4.10
2023-10-22T15:38:27.997Z,4.47
2023-10-22T15:41:00.422Z,4.70
2023-10-22T15:43:27.338Z,5.30
2023-10-22T15:45:54.360Z,4.30
2023-10-22T15:48:21.383Z,5.13
2023-10-22T15:50:48.326Z,5.03
2023-10-22T15:53:15.351Z,4.47
2023-10-22T15:55:42.311Z,5.20
2023-10-22T15:58:09.237Z,4.55
2023-10-22T16:00:37.057Z,5.22
2023-10-22T16:03:05.017Z,4.60
2023-10-22T16:05:32.009Z,4.43
2023-10-22T16:07:58.952Z,5.40
2023-10-22T16:10:25.925Z,4.65
2023-10-22T16:12:53.165Z,4.70
2023-10-22T16:15:20.397Z,4.57
2023-10-22T16:17:47.407Z,4.68
2023-10-22T16:20:16.059Z,5.03
2023-10-22T16:22:43.037Z,5.15
2023-10-22T16:25:10.094Z,6.07
2023-10-22T16:27:37.198Z,7.25
2023-10-22T16:30:05.074Z,5.18
2023-10-22T16:32:32.253Z,5.50
2023-10-22T16:34:59.334Z,5.05
2023-10-22T16:37:26.307Z,5.25
2023-10-22T16:39:53.408Z,4.75
2023-10-22T16:42:20.399Z,4.53
2023-10-22T16:44:51.059Z,4.28
2023-10-22T16:47:18.208Z,5.78
2023-10-22T16:49:45.241Z,7.55
2023-10-22T16:52:12.167Z,7.78
2023-10-22T16:54:39.135Z,9.52
2023-10-22T16:57:06.128Z,5.05
2023-10-22T16:59:33.076Z,5.32
2023-10-22T17:02:00.012Z,5.50
2023-10-22T17:04:26.928Z,10.02
2023-10-22T17:06:53.890Z,6.57
2023-10-22T17:09:20.877Z,5.30
2023-10-22T17:11:47.908Z,4.80
2023-10-22T17:14:14.870Z,6.78
2023-10-22T17:16:41.946Z,7.57
2023-10-22T17:19:09.089Z,20.35
2023-10-22T17:21:36.510Z,19.05
2023-10-22T17:24:03.627Z,14.40
2023-10-22T17:26:30.706Z,7.95
2023-10-22T17:28:57.687Z,28.90
2023-10-22T17:31:24.681Z,10.43
2023-10-22T17:36:21.501Z,13.77
2023-10-22T17:38:48.460Z,10.80
2023-10-22T17:41:15.399Z,8.07
2023-10-22T17:43:42.362Z,9.80
2023-10-22T17:46:09.262Z,10.88
2023-10-22T17:48:36.329Z,9.30
2023-10-22T17:51:04.294Z,8.75
2023-10-22T17:53:31.507Z,11.00
2023-10-22T17:56:09.927Z,7.03
2023-10-22T17:58:39.094Z,8.00
2023-10-22T18:01:06.366Z,9.30
2023-10-22T18:03:33.963Z,8.77
2023-10-22T18:06:02.535Z,7.93
2023-10-22T18:08:29.865Z,7.97
2023-10-22T18:10:58.362Z,9.82
2023-10-22T18:13:26.553Z,8.40
2023-10-22T18:15:57.121Z,11.95
2023-10-22T18:18:24.923Z,7.38
2023-10-22T18:20:52.384Z,8.00
2023-10-22T18:23:19.716Z,10.10
2023-10-22T18:25:46.781Z,10.55
2023-10-22T18:28:13.773Z,13.07
2023-10-22T18:30:43.672Z,8.07
2023-10-22T18:33:10.859Z,6.45
2023-10-22T18:35:37.887Z,10.05
2023-10-22T18:38:04.761Z,8.30
2023-10-22T18:40:31.779Z,10.10
2023-10-22T18:42:58.807Z,8.13
2023-10-22T18:45:25.956Z,7.68
2023-10-22T18:47:52.964Z,9.43
2023-10-22T18:50:19.915Z,9.68
2023-10-22T18:52:46.886Z,10.30
2023-10-22T18:55:13.831Z,9.93
2023-10-22T18:57:40.834Z,9.77
2023-10-22T19:00:09.335Z,10.63
2023-10-22T19:02:36.293Z,10.43
2023-10-22T19:05:03.481Z,10.02
2023-10-22T19:07:30.394Z,11.00
2023-10-22T19:09:57.342Z,12.57
2023-10-22T19:12:24.327Z,11.73
2023-10-22T19:14:51.262Z,10.30
2023-10-22T19:17:18.222Z,10.85
2023-10-22T19:19:49.524Z,11.82
2023-10-22T19:22:17.599Z,12.20
2023-10-22T19:24:44.613Z,12.20
2023-10-22T19:27:11.609Z,16.80
2023-10-22T19:29:41.554Z,18.70
2023-10-22T19:32:08.501Z,21.52
2023-10-22T19:34:35.891Z,31.98
2023-10-22T19:37:02.912Z,44.63
2023-10-22T19:39:31.467Z,49.00
2023-10-22T19:41:58.546Z,48.38
2023-10-22T19:44:25.470Z,38.28
2023-10-22T19:46:52.610Z,37.58
2023-10-22T19:49:19.578Z,38.58
2023-10-22T19:51:46.559Z,34.50
2023-10-22T19:54:13.557Z,28.17
2023-10-22T19:56:40.523Z,23.85
2023-10-22T19:59:07.481Z,19.20
2023-10-22T20:01:34.424Z,18.88
2023-10-22T20:04:01.537Z,17.00
2023-10-22T20:06:28.556Z,15.07
2023-10-22T20:08:55.620Z,15.80
2023-10-22T20:11:22.838Z,16.58
2023-10-22T20:13:50.030Z,17.25
2023-10-22T20:16:22.539Z,14.45
2023-10-22T20:21:20.935Z,12.95
2023-10-22T20:23:48.808Z,12.35
2023-10-22T20:26:15.793Z,14.80
2023-10-22T20:28:44.536Z,12.27
2023-10-22T20:31:12.879Z,11.45
2023-10-22T20:33:44.418Z,11.68
2023-10-22T20:36:11.595Z,11.47
2023-10-22T20:38:39.313Z,11.63
2023-10-22T20:41:08.151Z,11.43
2023-10-22T20:43:35.433Z,10.40
2023-10-22T20:46:07.413Z,10.85
2023-10-22T20:48:36.346Z,11.25
2023-10-22T20:51:21.729Z,11.55
2023-10-22T20:53:48.955Z,11.43
2023-10-22T20:56:16.094Z,11.45
2023-10-22T20:58:43.444Z,11.30
2023-10-22T21:01:15.142Z,11.90
2023-10-22T21:03:44.988Z,11.30
2023-10-22T21:06:13.524Z,10.73
2023-10-22T21:08:40.686Z,10.30
2023-10-22T21:11:07.704Z,10.00
2023-10-22T21:13:34.697Z,10.65
2023-10-22T21:16:01.759Z,10.77
2023-10-22T21:18:28.970Z,9.25
2023-10-22T21:21:00.451Z,9.85
2023-10-22T21:23:28.008Z,9.35
2023-10-22T21:25:55.258Z,9.15
2023-10-22T21:28:22.250Z,10.45
2023-10-22T21:30:49.386Z,9.35
2023-10-22T21:33:16.875Z,8.63
2023-10-22T21:35:44.912Z,8.45
2023-10-22T21:38:11.919Z,8.40
2023-10-22T21:40:38.850Z,9.38
2023-10-22T21:43:05.795Z,8.45
2023-10-22T21:45:32.838Z,7.85
2023-10-22T21:47:59.978Z,8.23
2023-10-22T21:50:26.957Z,7.78
2023-10-22T21:52:53.972Z,7.60
2023-10-22T21:55:20.880Z,7.82
2023-10-22T21:57:49.868Z,7.43
2023-10-22T22:00:17.449Z,6.75
2023-10-22T22:02:44.481Z,6.95
2023-10-22T22:05:11.501Z,6.57
2023-10-22T22:07:38.445Z,7.10
2023-10-22T22:10:06.010Z,6.55
2023-10-22T22:12:33.210Z,6.40
2023-10-22T22:15:00.256Z,6.07
2023-10-22T22:17:27.205Z,5.82
2023-10-22T22:19:54.257Z,6.43
2023-10-22T22:22:21.165Z,6.28
2023-10-22T22:24:48.159Z,7.78
2023-10-22T22:27:15.123Z,6.13
2023-10-22T22:29:42.088Z,6.53
2023-10-22T22:32:09.048Z,6.65
2023-10-22T22:34:36.084Z,6.40
2023-10-22T22:37:03.204Z,6.35
2023-10-22T22:39:30.183Z,5.97
2023-10-22T22:41:57.169Z,6.28
2023-10-22T22:44:24.078Z,5.93
2023-10-22T22:46:51.138Z,6.13
2023-10-22T22:49:18.187Z,6.82
2023-10-22T22:51:45.101Z,6.47
2023-10-22T22:54:12.182Z,5.72
2023-10-22T22:56:39.221Z,6.43
2023-10-22T22:59:06.325Z,7.95
2023-10-22T23:01:33.310Z,6.45
2023-10-22T23:04:00.270Z,6.10
2023-10-22T23:06:27.872Z,6.60
2023-10-22T23:08:54.851Z,6.32
2023-10-22T23:11:22.858Z,6.20
2023-10-22T23:13:49.779Z,5.68
2023-10-22T23:16:16.746Z,5.78
2023-10-22T23:18:44.457Z,5.05
2023-10-22T23:21:11.455Z,5.63
2023-10-22T23:23:38.467Z,5.32
2023-10-22T23:26:05.418Z,5.20
2023-10-22T23:28:32.373Z,5.22
2023-10-22T23:30:59.430Z,5.68
2023-10-22T23:33:26.461Z,5.50
2023-10-22T23:35:53.441Z,5.80
2023-10-22T23:38:20.374Z,4.75
2023-10-22T23:40:47.324Z,4.57
2023-10-22T23:43:14.301Z,5.03
2023-10-22T23:45:41.418Z,4.88
2023-10-22T23:48:08.444Z,5.20
2023-10-22T23:50:35.370Z,4.78
2023-10-22T23:53:02.314Z,5.05
2023-10-22T23:55:29.274Z,5.30
2023-10-22T23:57:56.188Z,5.03
